Time;durP1;ratioP1;P1;durP2;ratioP2;P2;SDS_P1;SDS_P2;PMS_P1;PMS_P2;Temp;Humidity;BMP_temperature;BMP_pressure;BME280_temperature;BME280_humidity;BME280_pressure;Samples;Min_cycle;Max_cycle;Signal;HPM_P1;HPM_P2
2022/08/13 00:02:04;;;;;;;11.32;4.13;;;19.80;84.00;;;;;;5133238;27;20096;-72
2022/08/13 00:04:31;;;;;;;9.13;4.18;;;19.80;83.70;;;;;;5115617;27;20062;-72
2022/08/13 00:09:26;;;;;;;12.90;4.47;;;19.70;83.90;;;;;;5118573;27;20044;-75
2022/08/13 00:14:37;;;;;;;9.98;4.20;;;19.70;84.10;;;;;;5131998;27;20410;-73
2022/08/13 00:17:08;;;;;;;11.32;4.28;;;19.70;84.10;;;;;;5134394;27;20392;-74
2022/08/13 00:19:34;;;;;;;8.30;4.30;;;19.60;84.30;;;;;;5134491;27;20057;-73
2022/08/13 00:22:00;;;;;;;8.80;4.35;;;19.60;84.20;;;;;;5135383;27;20051;-74
2022/08/13 00:24:26;;;;;;;11.80;4.22;;;19.60;84.30;;;;;;5111012;28;20131;-76
2022/08/13 00:26:52;;;;;;;10.73;4.10;;;19.50;84.20;;;;;;5114343;28;20043;-74
2022/08/13 00:29:19;;;;;;;7.33;3.60;;;19.50;84.30;;;;;;5130210;27;20427;-73
2022/08/13 00:31:46;;;;;;;14.48;3.72;;;19.40;84.30;;;;;;5114177;28;20365;-73
2022/08/13 00:34:12;;;;;;;10.55;4.00;;;19.40;84.40;;;;;;5113484;28;20478;-73
2022/08/13 00:36:37;;;;;;;10.83;4.17;;;19.40;84.30;;;;;;5113886;28;20054;-73
2022/08/13 00:39:06;;;;;;;8.50;4.00;;;19.40;84.30;;;;;;5125325;27;20363;-73
2022/08/13 00:41:38;;;;;;;12.73;3.65;;;19.40;84.20;;;;;;5114199;27;20046;-73
2022/08/13 00:44:06;;;;;;;8.15;3.40;;;19.40;84.20;;;;;;5136614;27;20078;-73
2022/08/13 00:46:34;;;;;;;9.80;4.38;;;19.40;84.10;;;;;;5136385;27;20049;-76
2022/08/13 00:49:03;;;;;;;7.25;3.67;;;19.30;84.10;;;;;;5136326;27;20054;-73
2022/08/13 00:51:31;;;;;;;7.55;3.60;;;19.30;84.10;;;;;;5136188;27;20051;-73
2022/08/13 00:53:59;;;;;;;10.30;3.47;;;19.30;84.20;;;;;;5154882;27;20121;-74
2022/08/13 00:56:26;;;;;;;13.43;4.25;;;19.30;84.30;;;;;;5152997;27;20050;-73
2022/08/13 00:58:52;;;;;;;;;;;19.20;84.30;;;;;;5152794;27;20117;-73
2022/08/13 01:01:25;;;;;;;7.97;3.42;;;19.30;84.90;;;;;;5154612;27;19998;-74
2022/08/13 01:03:51;;;;;;;9.75;3.70;;;19.20;84.10;;;;;;5154271;27;20513;-74
2022/08/13 01:06:18;;;;;;;;;;;19.20;84.10;;;;;;5135890;27;20043;-73
2022/08/13 01:08:44;;;;;;;;;;;19.10;84.40;;;;;;5136536;27;20025;-74
2022/08/13 01:11:11;;;;;;;6.40;3.65;;;19.10;84.30;;;;;;5154146;27;19923;-74
2022/08/13 01:13:40;;;;;;;8.63;3.75;;;19.00;83.80;;;;;;5136193;27;20094;-72
2022/08/13 01:16:14;;;;;;;10.38;3.58;;;19.00;84.00;;;;;;5155158;27;20135;-73
2022/08/13 01:18:48;;;;;;;10.68;3.33;;;19.00;83.90;;;;;;5154145;27;20046;-75
2022/08/13 01:21:19;;;;;;;11.25;3.65;;;19.00;84.10;;;;;;5136361;27;20043;-73
2022/08/13 01:23:52;;;;;;;11.15;3.92;;;19.00;84.10;;;;;;5116243;27;20390;-74
2022/08/13 01:26:19;;;;;;;12.20;3.75;;;19.00;84.40;;;;;;5115256;27;20049;-73
2022/08/13 01:28:47;;;;;;;11.40;3.63;;;18.90;84.30;;;;;;5116080;27;20082;-73
2022/08/13 01:31:15;;;;;;;9.50;3.67;;;18.90;84.30;;;;;;5115899;27;20352;-73
2022/08/13 01:33:45;;;;;;;6.07;3.40;;;18.90;84.30;;;;;;5132095;27;20039;-77
2022/08/13 01:36:12;;;;;;;11.13;3.85;;;18.80;84.40;;;;;;5118661;27;20039;-74
2022/08/13 01:38:40;;;;;;;11.95;3.88;;;18.80;84.40;;;;;;5118795;27;20117;-76
2022/08/13 01:41:10;;;;;;;9.20;3.45;;;18.80;84.40;;;;;;5135282;27;20136;-72
2022/08/13 01:43:38;;;;;;;8.00;3.70;;;18.70;84.30;;;;;;5093177;28;20056;-79
2022/08/13 01:46:08;;;;;;;10.30;3.55;;;18.70;84.50;;;;;;5092939;28;20069;-73
2022/08/13 01:51:22;;;;;;;;;;;18.70;84.50;;;;;;5112668;28;20124;-74
2022/08/13 01:53:55;;;;;;;16.85;3.30;;;18.70;84.70;;;;;;5110384;28;20038;-73
2022/08/13 01:56:22;;;;;;;8.35;3.13;;;18.60;84.40;;;;;;5144607;27;20104;-73
2022/08/13 01:58:54;;;;;;;10.75;3.58;;;18.60;84.40;;;;;;5093200;28;20100;-72
2022/08/13 02:01:24;;;;;;;7.28;3.50;;;18.50;84.80;;;;;;5083991;28;20592;-73
2022/08/13 02:03:56;;;;;;;6.55;3.42;;;18.50;84.80;;;;;;5090111;28;20191;-74
2022/08/13 02:06:30;;;;;;;9.32;3.70;;;18.40;84.80;;;;;;5091543;28;20078;-74
2022/08/13 02:09:02;;;;;;;11.20;3.50;;;18.40;85.40;;;;;;5083212;28;20415;-73
2022/08/13 02:11:32;;;;;;;7.65;3.40;;;18.30;85.40;;;;;;5109498;28;20082;-75
2022/08/13 02:14:03;;;;;;;7.60;3.60;;;18.30;85.30;;;;;;5111735;28;20568;-75
2022/08/13 02:16:37;;;;;;;7.90;2.90;;;18.30;85.30;;;;;;5081502;28;20063;-74
2022/08/13 02:19:07;;;;;;;6.07;3.10;;;18.20;85.60;;;;;;5090867;28;20052;-73
2022/08/13 02:21:38;;;;;;;5.97;3.30;;;18.20;85.50;;;;;;5092363;28;20104;-73
2022/08/13 02:24:11;;;;;;;7.30;3.00;;;18.20;85.70;;;;;;5090454;28;20059;-74
2022/08/13 02:26:38;;;;;;;8.30;3.40;;;18.10;85.60;;;;;;5103659;28;20043;-73
2022/08/13 02:29:05;;;;;;;6.25;3.40;;;18.10;85.60;;;;;;5111924;28;20075;-73
2022/08/13 02:31:32;;;;;;;7.63;3.35;;;18.10;85.80;;;;;;5112146;28;20043;-74
2022/08/13 02:33:58;;;;;;;6.82;3.58;;;18.10;85.80;;;;;;5111780;28;20146;-72
2022/08/13 02:36:25;;;;;;;7.80;3.60;;;18.10;85.80;;;;;;5111992;28;20043;-75
2022/08/13 02:38:55;;;;;;;6.68;3.50;;;18.00;85.80;;;;;;5099576;28;20298;-73
2022/08/13 02:44:07;;;;;;;8.07;3.30;;;18.00;85.80;;;;;;5089723;28;20044;-74
2022/08/13 02:46:34;;;;;;;5.90;2.92;;;18.00;85.60;;;;;;5091621;28;20044;-73
2022/08/13 02:49:00;;;;;;;6.90;3.33;;;17.90;85.50;;;;;;5072845;28;20052;-73
2022/08/13 02:51:27;;;;;;;8.53;3.87;;;17.90;85.50;;;;;;5090858;28;20127;-73
2022/08/13 02:53:53;;;;;;;9.52;3.38;;;17.90;85.50;;;;;;5104012;28;20035;-73
2022/08/13 02:56:19;;;;;;;7.17;3.43;;;17.90;85.60;;;;;;5110655;28;20039;-74
2022/08/13 02:58:45;;;;;;;7.85;3.70;;;17.90;85.70;;;;;;5110545;28;20051;-78
2022/08/13 03:01:14;;;;;;;12.97;3.60;;;17.90;85.80;;;;;;5112080;28;20044;-72
2022/08/13 03:03:40;;;;;;;6.53;3.50;;;17.80;86.00;;;;;;5111502;28;20298;-73
2022/08/13 03:06:09;;;;;;;6.45;3.47;;;17.80;86.00;;;;;;5112610;28;20079;-71
2022/08/13 03:08:36;;;;;;;14.87;3.70;;;17.80;86.00;;;;;;5111580;28;20514;-72
2022/08/13 03:11:03;;;;;;;7.38;3.78;;;17.80;86.10;;;;;;5093709;28;20200;-71
2022/08/13 03:13:36;;;;;;;5.90;3.30;;;17.70;86.00;;;;;;5111978;28;20506;-72
2022/08/13 03:16:03;;;;;;;8.32;3.47;;;17.70;86.10;;;;;;5095222;28;20104;-72
2022/08/13 03:18:29;;;;;;;;;;;17.70;86.00;;;;;;5113643;28;20043;-72
2022/08/13 03:20:55;;;;;;;9.40;3.55;;;17.70;86.30;;;;;;5112982;28;20066;-72
2022/08/13 03:23:23;;;;;;;11.98;3.55;;;17.70;85.70;;;;;;5111455;28;20138;-71
2022/08/13 03:25:50;;;;;;;5.65;2.90;;;17.70;85.80;;;;;;5110543;28;20135;-74
2022/08/13 03:28:16;;;;;;;6.78;3.45;;;17.70;85.90;;;;;;5111266;28;20048;-73
2022/08/13 03:30:43;;;;;;;9.47;3.40;;;17.70;86.00;;;;;;5110025;28;20054;-72
2022/08/13 03:33:13;;;;;;;7.25;3.28;;;17.60;86.20;;;;;;5109234;28;20542;-72
2022/08/13 03:35:39;;;;;;;6.63;3.10;;;17.60;86.30;;;;;;5111217;28;20044;-73
2022/08/13 03:38:08;;;;;;;7.88;3.40;;;17.60;86.40;;;;;;5113727;27;20050;-73
2022/08/13 03:43:20;;;;;;;7.03;3.47;;;17.50;86.60;;;;;;5128539;27;20051;-76
2022/08/13 03:45:47;;;;;;;6.97;3.35;;;17.50;86.80;;;;;;5135665;27;20356;-73
2022/08/13 03:48:14;;;;;;;7.78;3.00;;;17.50;87.00;;;;;;5130755;27;20490;-78
2022/08/13 03:50:41;;;;;;;7.53;3.30;;;17.40;87.00;;;;;;5131066;27;20078;-73
2022/08/13 03:53:08;;;;;;;5.25;2.80;;;17.40;87.10;;;;;;5133616;27;20161;-72
2022/08/13 03:55:34;;;;;;;7.53;3.42;;;17.40;87.30;;;;;;5132804;27;20392;-71
2022/08/13 03:58:00;;;;;;;7.28;3.28;;;17.40;87.50;;;;;;5126666;27;20124;-74
2022/08/13 04:00:28;;;;;;;6.47;3.22;;;17.30;87.60;;;;;;5123793;27;20127;-73
2022/08/13 04:03:00;;;;;;;6.60;3.70;;;17.30;87.60;;;;;;5134774;27;20092;-73
2022/08/13 04:05:26;;;;;;;7.00;3.38;;;17.30;88.10;;;;;;5135291;27;20418;-72
2022/08/13 04:07:52;;;;;;;8.53;3.00;;;17.20;87.90;;;;;;5135289;27;20047;-79
2022/08/13 04:10:19;;;;;;;8.30;3.40;;;17.20;88.10;;;;;;5133850;27;20094;-71
2022/08/13 04:12:46;;;;;;;7.93;3.47;;;17.20;88.10;;;;;;5113507;28;20058;-73
2022/08/13 04:15:11;;;;;;;7.38;3.30;;;17.10;88.20;;;;;;5123273;27;20047;-75
2022/08/13 04:17:38;;;;;;;8.80;3.67;;;17.10;88.20;;;;;;5134271;27;20111;-72
2022/08/13 04:20:05;;;;;;;8.65;3.30;;;17.10;88.20;;;;;;5116097;27;20054;-73
2022/08/13 04:22:33;;;;;;;9.32;3.63;;;17.10;88.30;;;;;;5133935;27;20432;-73
2022/08/13 04:24:59;;;;;;;7.93;2.92;;;17.10;88.40;;;;;;5131416;27;20091;-73
2022/08/13 04:27:25;;;;;;;10.17;3.13;;;17.10;88.50;;;;;;5133690;27;20122;-74
2022/08/13 04:29:53;;;;;;;7.97;4.00;;;17.10;88.50;;;;;;5134005;27;20051;-73
2022/08/13 04:32:20;;;;;;;8.65;3.53;;;17.10;88.30;;;;;;5135013;27;20126;-73
2022/08/13 04:34:45;;;;;;;;;;;17.10;88.40;;;;;;5135582;27;20166;-72
2022/08/13 04:37:11;;;;;;;5.60;3.37;;;17.10;88.80;;;;;;5133069;27;19963;-73
2022/08/13 04:39:37;;;;;;;9.03;3.50;;;17.20;88.10;;;;;;5132885;27;20047;-73
2022/08/13 04:42:04;;;;;;;6.75;3.20;;;17.20;88.00;;;;;;5132423;27;20055;-73
2022/08/13 04:44:30;;;;;;;9.73;3.70;;;17.20;88.00;;;;;;5116564;27;20043;-73
2022/08/13 04:46:56;;;;;;;6.13;3.50;;;17.30;88.20;;;;;;5134044;27;20059;-79
2022/08/13 04:49:22;;;;;;;6.55;3.42;;;17.20;88.20;;;;;;5131637;27;20469;-76
2022/08/13 04:51:47;;;;;;;7.07;3.20;;;17.30;88.20;;;;;;5134985;27;20467;-73
2022/08/13 04:54:14;;;;;;;9.15;3.58;;;17.40;88.50;;;;;;5121812;27;20111;-74
2022/08/13 04:56:40;;;;;;;6.93;3.05;;;17.40;88.60;;;;;;5091559;28;20043;-74
2022/08/13 04:59:06;;;;;;;7.60;3.17;;;17.40;88.80;;;;;;5093172;28;20048;-73
2022/08/13 05:01:32;;;;;;;7.27;3.30;;;17.50;88.90;;;;;;5092222;28;20048;-72
2022/08/13 05:03:58;;;;;;;5.60;3.53;;;17.60;89.00;;;;;;5112560;27;20411;-79
2022/08/13 05:06:24;;;;;;;6.15;3.20;;;17.70;89.00;;;;;;5112450;28;20086;-74
2022/08/13 05:08:51;;;;;;;9.93;3.53;;;17.80;89.10;;;;;;5103233;28;20052;-73
2022/08/13 05:11:18;;;;;;;6.10;3.28;;;17.90;89.00;;;;;;5090711;28;20231;-73
2022/08/13 05:13:45;;;;;;;8.32;3.13;;;17.90;88.90;;;;;;5093647;28;20047;-73
2022/08/13 05:16:12;;;;;;;;;;;18.00;88.70;;;;;;5108772;27;20105;-73
2022/08/13 05:18:43;;;;;;;7.80;3.17;;;18.00;88.70;;;;;;5113907;28;19938;-72
2022/08/13 05:21:09;;;;;;;8.55;3.33;;;18.10;88.30;;;;;;5111618;28;20089;-73
2022/08/13 05:23:36;;;;;;;6.30;3.17;;;18.10;88.20;;;;;;5113623;28;20075;-72
2022/08/13 05:26:03;;;;;;;7.15;2.90;;;18.20;88.40;;;;;;5110273;28;20516;-73
2022/08/13 05:28:30;;;;;;;7.13;3.33;;;18.20;88.30;;;;;;5104484;27;20044;-74
2022/08/13 05:30:57;;;;;;;9.85;3.65;;;18.20;88.20;;;;;;5093754;28;20048;-73
2022/08/13 05:33:26;;;;;;;7.22;3.30;;;18.30;88.20;;;;;;5093437;28;20526;-72
2022/08/13 05:35:59;;;;;;;11.82;3.53;;;18.30;88.30;;;;;;5107480;28;20446;-72
2022/08/13 05:38:27;;;;;;;6.65;3.70;;;18.40;88.30;;;;;;5092809;28;20052;-74
2022/08/13 05:40:59;;;;;;;9.88;3.83;;;18.40;88.30;;;;;;5099311;27;20399;-72
2022/08/13 05:43:28;;;;;;;6.35;3.30;;;18.40;88.30;;;;;;5126471;27;20050;-74
2022/08/13 05:46:02;;;;;;;9.77;3.25;;;18.50;88.50;;;;;;5133874;27;20050;-72
2022/08/13 05:48:34;;;;;;;6.40;3.28;;;18.60;88.60;;;;;;5135599;27;20086;-72
2022/08/13 05:51:03;;;;;;;8.93;3.28;;;18.70;88.40;;;;;;5154503;27;20050;-74
2022/08/13 05:53:33;;;;;;;12.27;3.08;;;18.80;88.20;;;;;;5154135;27;20043;-75
2022/08/13 05:55:59;;;;;;;8.02;3.25;;;18.80;88.00;;;;;;5133630;27;20042;-74
2022/08/13 05:58:26;;;;;;;11.00;3.40;;;18.90;87.90;;;;;;5132475;27;20050;-73
2022/08/13 06:03:37;;;;;;;8.88;3.45;;;18.90;87.80;;;;;;5154151;27;20366;-73
2022/08/13 06:06:05;;;;;;;8.55;3.60;;;19.00;87.60;;;;;;5117015;27;20055;-75
2022/08/13 06:08:35;;;;;;;7.70;3.47;;;19.10;87.40;;;;;;5153194;27;20051;-74
2022/08/13 06:11:04;;;;;;;7.22;3.13;;;19.10;87.20;;;;;;5134183;27;20051;-74
2022/08/13 06:13:33;;;;;;;6.65;3.50;;;19.10;87.20;;;;;;5153633;27;20067;-75
2022/08/13 06:16:01;;;;;;;8.40;3.47;;;19.20;87.20;;;;;;5133943;27;20050;-75
2022/08/13 06:18:29;;;;;;;6.90;3.60;;;19.30;87.30;;;;;;5150163;27;20113;-74
2022/08/13 06:20:56;;;;;;;9.15;3.70;;;19.30;87.30;;;;;;5132384;27;20083;-75
2022/08/13 06:23:24;;;;;;;8.35;3.40;;;19.40;87.20;;;;;;5152603;27;20039;-74
2022/08/13 06:25:51;;;;;;;7.22;3.58;;;19.40;87.00;;;;;;5116498;27;20060;-74
2022/08/13 06:28:20;;;;;;;8.90;3.35;;;19.50;87.00;;;;;;5152907;27;20057;-73
2022/08/13 06:30:50;;;;;;;9.32;3.50;;;19.50;86.90;;;;;;5125480;27;20043;-72
2022/08/13 06:33:21;;;;;;;8.95;3.30;;;19.60;86.90;;;;;;5096497;27;20094;-74
2022/08/13 06:35:59;;;;;;;6.38;3.50;;;19.70;87.00;;;;;;5133137;27;20107;-73
2022/08/13 06:38:33;;;;;;;5.65;3.17;;;19.70;86.90;;;;;;5152173;27;20039;-74
2022/08/13 06:41:00;;;;;;;6.38;3.35;;;19.80;87.00;;;;;;5151417;27;20066;-74
2022/08/13 06:43:30;;;;;;;22.85;3.35;;;19.80;86.70;;;;;;5151804;27;20120;-75
2022/08/13 06:45:59;;;;;;;7.18;3.65;;;19.90;87.00;;;;;;5134074;27;20134;-75
2022/08/13 06:48:28;;;;;;;5.03;3.08;;;20.00;86.70;;;;;;5133976;27;20050;-75
2022/08/13 06:50:55;;;;;;;8.95;3.20;;;20.10;86.70;;;;;;5139559;27;20047;-73
2022/08/13 06:53:20;;;;;;;;;;;20.10;86.60;;;;;;5152553;27;20035;-75
2022/08/13 06:55:49;;;;;;;7.30;3.27;;;20.30;86.70;;;;;;5133062;27;20432;-75
2022/08/13 06:58:16;;;;;;;5.57;3.22;;;20.30;86.10;;;;;;5132605;27;20643;-74
2022/08/13 07:00:43;;;;;;;6.32;2.85;;;20.50;86.30;;;;;;5116989;27;20076;-74
2022/08/13 07:03:10;;;;;;;4.95;2.80;;;20.60;86.20;;;;;;5152117;27;20082;-75
2022/08/13 07:05:41;;;;;;;6.22;2.90;;;20.70;86.20;;;;;;5132396;27;20111;-73
2022/08/13 07:08:11;;;;;;;7.35;3.00;;;20.80;86.10;;;;;;5153185;27;20082;-73
2022/08/13 07:10:46;;;;;;;7.80;2.70;;;20.90;85.80;;;;;;5152805;27;20047;-73
2022/08/13 07:13:12;;;;;;;7.35;2.90;;;21.10;85.90;;;;;;5138644;27;20055;-78
2022/08/13 07:15:38;;;;;;;9.20;3.60;;;21.20;85.60;;;;;;5157841;27;20035;-71
2022/08/13 07:18:06;;;;;;;11.93;2.70;;;21.30;85.20;;;;;;5137433;27;20134;-76
2022/08/13 07:20:32;;;;;;;4.68;2.70;;;21.50;85.20;;;;;;5155218;27;20053;-73
2022/08/13 07:23:01;;;;;;;9.40;2.70;;;21.60;85.00;;;;;;5108054;27;20039;-73
2022/08/13 07:25:32;;;;;;;10.85;3.00;;;21.70;84.80;;;;;;5099066;27;20541;-75
2022/08/13 07:27:59;;;;;;;5.22;2.88;;;21.80;84.40;;;;;;5136167;27;20126;-74
2022/08/13 07:30:26;;;;;;;7.53;3.15;;;21.90;84.10;;;;;;5135307;27;20053;-75
2022/08/13 07:32:55;;;;;;;6.20;2.50;;;22.10;83.90;;;;;;5117654;27;20058;-75
2022/08/13 07:35:20;;;;;;;8.90;2.72;;;22.20;83.90;;;;;;5145665;27;20121;-76
2022/08/13 07:37:50;;;;;;;8.53;2.60;;;22.30;83.50;;;;;;5138239;27;20129;-77
2022/08/13 07:40:16;;;;;;;7.38;2.85;;;22.50;83.10;;;;;;5139018;27;20258;-79
2022/08/13 07:42:49;;;;;;;6.38;2.63;;;22.60;83.20;;;;;;5122966;27;20059;-75
2022/08/13 07:45:23;;;;;;;6.25;2.42;;;22.70;83.10;;;;;;5115129;28;20050;-80
2022/08/13 07:47:52;;;;;;;9.05;2.47;;;22.80;82.90;;;;;;5114356;28;20067;-75
2022/08/13 07:50:17;;;;;;;9.90;2.60;;;22.90;82.50;;;;;;5113269;28;20043;-74
2022/08/13 07:52:44;;;;;;;7.90;2.50;;;23.00;82.00;;;;;;5114197;28;20126;-74
2022/08/13 07:55:10;;;;;;;5.75;2.20;;;23.10;82.00;;;;;;5113099;28;20051;-75
2022/08/13 07:57:43;;;;;;;5.77;2.20;;;23.30;82.00;;;;;;5097436;28;20054;-75
2022/08/13 08:00:21;;;;;;;5.40;2.15;;;23.40;81.10;;;;;;5114002;28;20043;-73
2022/08/13 08:02:57;;;;;;;6.15;1.90;;;23.40;80.40;;;;;;5114699;28;20043;-75
2022/08/13 08:05:24;;;;;;;7.10;2.25;;;23.50;79.90;;;;;;5114754;28;20107;-75
2022/08/13 08:07:51;;;;;;;8.13;2.22;;;23.70;79.80;;;;;;5114926;28;20207;-74
2022/08/13 08:10:18;;;;;;;4.35;1.80;;;23.80;79.60;;;;;;5094928;28;20052;-78
2022/08/13 08:12:44;;;;;;;7.78;2.55;;;23.90;79.60;;;;;;5112516;28;20036;-73
2022/08/13 08:15:11;;;;;;;5.97;2.20;;;24.00;79.20;;;;;;5113485;28;20043;-79
2022/08/13 08:17:37;;;;;;;;;;;24.10;78.60;;;;;;5096239;28;20054;-73
2022/08/13 08:20:04;;;;;;;6.35;1.90;;;24.20;78.30;;;;;;5112761;28;19919;-74
2022/08/13 08:22:30;;;;;;;4.07;1.80;;;24.30;77.00;;;;;;5111010;28;20055;-75
2022/08/13 08:24:57;;;;;;;4.57;1.92;;;24.40;78.10;;;;;;5113488;28;20130;-75
2022/08/13 08:27:25;;;;;;;7.57;2.10;;;24.50;77.90;;;;;;5112192;28;20071;-75
2022/08/13 08:29:52;;;;;;;5.65;2.10;;;24.60;78.10;;;;;;5114668;28;20040;-74
2022/08/13 08:32:19;;;;;;;4.28;1.88;;;24.70;77.40;;;;;;5114757;28;20055;-74
2022/08/13 08:34:49;;;;;;;5.47;2.00;;;24.80;76.60;;;;;;5114628;28;20075;-74
2022/08/13 08:42:52;;;;;;;6.10;1.85;;;25.10;75.30;;;;;;5118981;27;20487;-74
2022/08/13 08:45:20;;;;;;;5.05;1.65;;;25.20;75.70;;;;;;5115588;28;20046;-77
2022/08/13 08:47:49;;;;;;;4.80;1.90;;;25.30;74.30;;;;;;5123068;27;20044;-74
2022/08/13 08:50:22;;;;;;;5.88;2.17;;;25.40;73.80;;;;;;5134617;27;20043;-74
2022/08/13 08:55:36;;;;;;;6.85;1.90;;;25.60;73.40;;;;;;5135141;27;20051;-79
2022/08/13 08:58:04;;;;;;;5.15;2.00;;;25.70;73.70;;;;;;5141240;27;20058;-75
2022/08/13 09:00:33;;;;;;;4.55;2.00;;;25.80;73.40;;;;;;5142543;27;20059;-74
2022/08/13 09:03:10;;;;;;;4.30;2.30;;;25.90;72.90;;;;;;5137984;27;20471;-76
2022/08/13 09:05:36;;;;;;;3.63;1.80;;;26.00;71.90;;;;;;5119226;28;20052;-75
2022/08/13 09:08:06;;;;;;;3.75;2.15;;;26.10;71.90;;;;;;5137733;27;20046;-73
2022/08/13 09:10:34;;;;;;;4.88;2.10;;;26.30;70.20;;;;;;5149319;27;20051;-75
2022/08/13 09:13:02;;;;;;;7.78;2.22;;;26.30;69.80;;;;;;5132734;27;20058;-75
2022/08/13 09:15:30;;;;;;;5.43;2.03;;;26.30;69.80;;;;;;5146966;27;20058;-74
2022/08/13 09:17:58;;;;;;;4.72;2.10;;;26.40;69.90;;;;;;5147760;27;20096;-78
2022/08/13 09:20:26;;;;;;;8.18;2.00;;;26.40;70.00;;;;;;5147080;27;20066;-80
2022/08/13 09:23:08;;;;;;;9.35;1.95;;;26.50;69.90;;;;;;5127404;27;20099;-76
2022/08/13 09:25:41;;;;;;;4.70;2.05;;;26.60;69.60;;;;;;5144863;27;20097;-72
2022/08/13 09:28:08;;;;;;;9.48;2.42;;;26.70;67.80;;;;;;5142140;27;20123;-76
2022/08/13 09:30:39;;;;;;;4.45;2.00;;;26.80;66.60;;;;;;5115797;28;20122;-74
2022/08/13 09:33:06;;;;;;;4.55;2.03;;;26.80;66.90;;;;;;5117775;28;20040;-75
2022/08/13 09:35:32;;;;;;;4.20;1.70;;;26.90;67.30;;;;;;5116111;28;20047;-75
2022/08/13 09:37:59;;;;;;;;;;;27.00;67.40;;;;;;5122833;27;20039;-78
2022/08/13 09:40:27;;;;;;;3.28;1.88;;;27.10;65.10;;;;;;5136538;27;19930;-81
2022/08/13 09:43:01;;;;;;;4.65;2.22;;;27.30;64.70;;;;;;5148458;27;20394;-76
2022/08/13 09:45:29;;;;;;;11.10;2.58;;;27.40;64.00;;;;;;5119912;27;20046;-74
2022/08/13 09:47:55;;;;;;;6.53;2.13;;;27.40;64.40;;;;;;5154917;27;20061;-74
2022/08/13 09:50:24;;;;;;;7.72;2.72;;;27.40;64.10;;;;;;5138037;27;20047;-73
2022/08/13 09:52:52;;;;;;;6.20;2.17;;;27.50;63.70;;;;;;5139037;27;20054;-75
2022/08/13 09:55:19;;;;;;;3.03;1.88;;;27.60;64.40;;;;;;5137521;27;20046;-73
2022/08/13 09:58:02;;;;;;;6.93;1.90;;;27.60;61.80;;;;;;5156452;27;20042;-75
2022/08/13 10:00:31;;;;;;;6.35;2.00;;;27.70;62.50;;;;;;5153795;27;20047;-74
2022/08/13 10:02:59;;;;;;;4.22;1.80;;;27.70;63.00;;;;;;5115935;27;20096;-74
2022/08/13 10:05:37;;;;;;;3.42;1.88;;;27.80;61.40;;;;;;5133470;27;20047;-74
2022/08/13 10:08:12;;;;;;;6.30;1.77;;;28.00;59.90;;;;;;5134186;27;20041;-74
2022/08/13 10:10:38;;;;;;;4.15;2.10;;;28.00;59.80;;;;;;5129999;27;20057;-73
2022/08/13 10:13:04;;;;;;;7.57;2.05;;;28.00;60.20;;;;;;5132382;27;20090;-75
2022/08/13 10:15:30;;;;;;;5.30;1.88;;;28.00;59.80;;;;;;5137015;27;20481;-75
2022/08/13 10:18:02;;;;;;;3.72;1.80;;;28.10;59.80;;;;;;5153172;27;20034;-75
2022/08/13 10:20:45;;;;;;;4.75;1.80;;;28.10;60.00;;;;;;5138749;27;20043;-79
2022/08/13 10:23:13;;;;;;;4.85;1.73;;;28.10;58.80;;;;;;5136957;27;20039;-76
2022/08/13 10:25:39;;;;;;;2.95;1.83;;;28.10;58.70;;;;;;5118193;27;20156;-74
2022/08/13 10:28:21;;;;;;;3.30;1.80;;;28.10;59.20;;;;;;5154500;27;20047;-75
2022/08/13 10:30:47;;;;;;;5.80;1.98;;;28.20;59.00;;;;;;5135133;27;20047;-76
2022/08/13 10:33:15;;;;;;;4.15;1.77;;;28.30;59.00;;;;;;5134295;27;20095;-75
2022/08/13 10:35:44;;;;;;;5.13;1.67;;;28.50;56.40;;;;;;5133083;27;20478;-73
2022/08/13 10:38:18;;;;;;;8.77;2.00;;;28.50;56.90;;;;;;5132307;27;20119;-73
2022/08/13 10:40:44;;;;;;;5.80;1.90;;;28.50;56.20;;;;;;5112334;27;20062;-74
2022/08/13 10:43:10;;;;;;;4.05;2.13;;;28.50;57.50;;;;;;5096200;27;20063;-77
2022/08/13 10:45:42;;;;;;;8.10;1.88;;;28.60;57.20;;;;;;5151586;27;20077;-72
2022/08/13 10:48:11;;;;;;;4.63;1.70;;;28.70;57.40;;;;;;5153034;27;20431;-75
2022/08/13 10:50:38;;;;;;;11.32;2.10;;;28.70;57.40;;;;;;5152775;27;20043;-73
2022/08/13 10:53:04;;;;;;;6.88;2.30;;;28.70;57.30;;;;;;5153724;27;20035;-73
2022/08/13 10:55:30;;;;;;;6.55;2.30;;;28.80;56.50;;;;;;5116610;27;20482;-80
2022/08/13 10:57:56;;;;;;;8.02;2.05;;;28.90;56.10;;;;;;5151341;27;20041;-74
2022/08/13 11:00:22;;;;;;;4.57;1.95;;;28.80;57.10;;;;;;5152660;27;20047;-74
2022/08/13 11:02:50;;;;;;;4.32;1.75;;;28.80;57.10;;;;;;5117165;27;20497;-74
2022/08/13 11:05:20;;;;;;;5.05;2.00;;;28.90;57.20;;;;;;5152646;27;20427;-75
2022/08/13 11:07:46;;;;;;;4.57;2.10;;;28.90;57.30;;;;;;5153452;27;20076;-74
2022/08/13 11:10:15;;;;;;;5.85;2.10;;;28.90;57.20;;;;;;5130976;28;20078;-74
2022/08/13 11:12:50;;;;;;;;;;;29.00;57.00;;;;;;5133071;27;20039;-73
2022/08/13 11:15:22;;;;;;;7.25;2.08;;;29.00;57.20;;;;;;5153076;27;19919;-74
2022/08/13 11:17:50;;;;;;;7.43;2.22;;;29.10;56.00;;;;;;5136314;27;20039;-73
2022/08/13 11:20:19;;;;;;;6.32;2.22;;;29.10;55.30;;;;;;5099540;27;20051;-73
2022/08/13 11:22:51;;;;;;;4.25;1.92;;;29.20;55.50;;;;;;5116350;27;20448;-73
2022/08/13 11:25:17;;;;;;;4.72;1.75;;;29.30;55.50;;;;;;5148027;27;20126;-73
2022/08/13 11:27:43;;;;;;;4.20;1.70;;;29.50;53.30;;;;;;5098732;27;20462;-76
2022/08/13 11:30:09;;;;;;;3.10;1.67;;;29.70;53.50;;;;;;5133101;27;20034;-74
2022/08/13 11:32:36;;;;;;;5.05;2.13;;;29.70;52.70;;;;;;5130829;27;20039;-80
2022/08/13 11:35:03;;;;;;;6.75;1.77;;;29.80;51.60;;;;;;5132733;27;20082;-73
2022/08/13 11:37:29;;;;;;;5.70;2.22;;;29.50;52.10;;;;;;5117104;27;20050;-77
2022/08/13 11:39:55;;;;;;;6.90;2.28;;;29.50;52.30;;;;;;5150305;27;20043;-75
2022/08/13 11:42:20;;;;;;;4.13;2.35;;;29.50;52.20;;;;;;5133288;27;20413;-77
2022/08/13 11:44:46;;;;;;;5.07;2.10;;;29.60;52.30;;;;;;5152993;27;20094;-75
2022/08/13 11:47:12;;;;;;;10.25;2.15;;;29.50;52.70;;;;;;5152669;27;20126;-76
2022/08/13 11:49:37;;;;;;;3.20;1.92;;;29.60;53.50;;;;;;5116564;27;20053;-80
2022/08/13 11:52:03;;;;;;;5.13;2.67;;;29.70;53.10;;;;;;5134293;27;20046;-74
2022/08/13 11:54:29;;;;;;;7.13;2.63;;;29.90;52.00;;;;;;5151706;27;20046;-75
2022/08/13 11:56:54;;;;;;;11.25;2.35;;;29.90;51.80;;;;;;5134530;27;20385;-77
2022/08/13 11:59:20;;;;;;;6.20;2.33;;;30.00;51.10;;;;;;5158456;27;20045;-75
2022/08/13 12:01:46;;;;;;;3.58;2.20;;;29.80;50.80;;;;;;5155514;27;20081;-77
2022/08/13 12:04:12;;;;;;;;;;;29.80;51.90;;;;;;5120877;27;20065;-74
2022/08/13 12:06:42;;;;;;;4.75;2.47;;;29.60;52.60;;;;;;5155879;27;19923;-77
2022/08/13 12:09:07;;;;;;;4.75;2.40;;;29.50;53.80;;;;;;5137684;27;20081;-78
2022/08/13 12:11:35;;;;;;;7.55;2.28;;;29.40;52.90;;;;;;5135514;27;20501;-75
2022/08/13 12:14:01;;;;;;;5.57;2.38;;;29.20;53.00;;;;;;5116214;27;20146;-75
2022/08/13 12:16:27;;;;;;;6.47;2.38;;;29.20;53.20;;;;;;5116454;27;20051;-75
2022/08/13 12:18:53;;;;;;;4.03;2.22;;;29.20;52.60;;;;;;5116235;27;20178;-77
2022/08/13 12:21:19;;;;;;;5.13;2.30;;;29.40;52.70;;;;;;5099464;27;20043;-74
2022/08/13 12:23:44;;;;;;;4.63;2.50;;;29.70;52.00;;;;;;5116223;27;20463;-75
2022/08/13 12:26:10;;;;;;;4.90;2.17;;;29.90;51.20;;;;;;5115523;27;20501;-76
2022/08/13 12:28:36;;;;;;;4.25;2.38;;;29.90;51.40;;;;;;5154207;27;20053;-75
2022/08/13 12:31:05;;;;;;;4.38;2.53;;;30.00;51.60;;;;;;5153909;27;20060;-74
2022/08/13 12:33:31;;;;;;;4.07;2.20;;;30.20;51.40;;;;;;5155520;27;20072;-75
2022/08/13 12:36:01;;;;;;;4.57;2.33;;;30.30;50.90;;;;;;5136056;27;20042;-76
2022/08/13 12:38:32;;;;;;;4.65;2.20;;;30.30;51.30;;;;;;5136927;27;20042;-75
2022/08/13 12:41:00;;;;;;;3.88;2.33;;;30.20;50.50;;;;;;5134956;27;20046;-75
2022/08/13 12:43:26;;;;;;;6.57;2.35;;;30.10;50.00;;;;;;5131770;27;20102;-75
2022/08/13 12:45:52;;;;;;;;;;;30.00;49.30;;;;;;5133390;27;20126;-76
2022/08/13 12:48:18;;;;;;;7.07;2.40;;;30.00;49.30;;;;;;5133539;27;19977;-75
2022/08/13 12:50:51;;;;;;;5.45;2.60;;;30.30;50.30;;;;;;5134134;27;20053;-76
2022/08/13 12:53:17;;;;;;;6.32;2.45;;;30.50;49.50;;;;;;5117109;27;20047;-75
2022/08/13 12:55:45;;;;;;;5.68;2.53;;;30.50;49.90;;;;;;5115823;27;20399;-75
2022/08/13 12:58:17;;;;;;;6.05;2.63;;;30.40;50.10;;;;;;5133201;27;20058;-76
2022/08/13 13:00:44;;;;;;;6.78;2.58;;;30.40;49.60;;;;;;5116464;27;20090;-77
2022/08/13 13:03:10;;;;;;;3.75;2.30;;;30.30;50.00;;;;;;5137496;27;20173;-77
2022/08/13 13:05:37;;;;;;;4.78;2.28;;;30.30;50.30;;;;;;5099789;27;20039;-77
2022/08/13 13:08:14;;;;;;;5.20;2.45;;;30.40;50.80;;;;;;5133131;27;20039;-78
2022/08/13 13:10:41;;;;;;;3.83;2.80;;;30.50;50.40;;;;;;5132425;27;20055;-75
2022/08/13 13:13:07;;;;;;;6.85;2.90;;;30.50;50.30;;;;;;5133850;27;20078;-75
2022/08/13 13:15:34;;;;;;;6.90;2.42;;;30.50;49.60;;;;;;5132757;27;20155;-77
2022/08/13 13:18:00;;;;;;;6.30;2.58;;;30.60;49.70;;;;;;5128298;27;20132;-73